sensor_id;sensor_type;location;lat;lon;timestamp;temperature;humidity
68235;DHT22;55052;52.056;5.296;2023-05-07T00:01:33;16.80;85.70
68235;DHT22;55052;52.056;5.296;2023-05-07T00:04:00;16.80;85.70
68235;DHT22;55052;52.056;5.296;2023-05-07T00:06:27;16.80;85.70
68235;DHT22;55052;52.056;5.296;2023-05-07T00:08:56;16.80;86.60
68235;DHT22;55052;52.056;5.296;2023-05-07T00:11:24;16.70;85.70
68235;DHT22;55052;52.056;5.296;2023-05-07T00:13:51;16.70;85.80
68235;DHT22;55052;52.056;5.296;2023-05-07T00:16:19;16.70;85.90
68235;DHT22;55052;52.056;5.296;2023-05-07T00:18:45;16.70;85.90
68235;DHT22;55052;52.056;5.296;2023-05-07T00:21:12;16.70;86.00
68235;DHT22;55052;52.056;5.296;2023-05-07T00:23:39;16.60;85.90
68235;DHT22;55052;52.056;5.296;2023-05-07T00:26:06;16.60;86.00
68235;DHT22;55052;52.056;5.296;2023-05-07T00:28:33;16.60;86.00
68235;DHT22;55052;52.056;5.296;2023-05-07T00:30:59;16.60;86.10
68235;DHT22;55052;52.056;5.296;2023-05-07T00:33:26;16.60;86.30
68235;DHT22;55052;52.056;5.296;2023-05-07T00:35:53;16.60;86.50
68235;DHT22;55052;52.056;5.296;2023-05-07T00:38:23;16.50;86.50
68235;DHT22;55052;52.056;5.296;2023-05-07T00:40:49;16.50;86.50
68235;DHT22;55052;52.056;5.296;2023-05-07T00:43:18;16.50;86.60
68235;DHT22;55052;52.056;5.296;2023-05-07T00:45:44;16.50;86.70
68235;DHT22;55052;52.056;5.296;2023-05-07T00:48:12;16.50;87.70
68235;DHT22;55052;52.056;5.296;2023-05-07T00:50:40;16.50;86.80
68235;DHT22;55052;52.056;5.296;2023-05-07T00:53:07;16.50;86.90
68235;DHT22;55052;52.056;5.296;2023-05-07T00:55:35;16.50;86.90
68235;DHT22;55052;52.056;5.296;2023-05-07T00:58:03;16.50;87.00
68235;DHT22;55052;52.056;5.296;2023-05-07T01:00:30;16.50;87.00
68235;DHT22;55052;52.056;5.296;2023-05-07T01:02:57;16.50;87.00
68235;DHT22;55052;52.056;5.296;2023-05-07T01:05:26;16.40;87.00
68235;DHT22;55052;52.056;5.296;2023-05-07T01:07:54;16.50;87.00
68235;DHT22;55052;52.056;5.296;2023-05-07T01:10:22;16.50;87.00
68235;DHT22;55052;52.056;5.296;2023-05-07T01:12:50;16.40;87.10
68235;DHT22;55052;52.056;5.296;2023-05-07T01:15:17;16.50;87.00
68235;DHT22;55052;52.056;5.296;2023-05-07T01:17:44;16.50;87.80
68235;DHT22;55052;52.056;5.296;2023-05-07T01:20:12;16.50;87.10
68235;DHT22;55052;52.056;5.296;2023-05-07T01:22:40;16.50;87.20
68235;DHT22;55052;52.056;5.296;2023-05-07T01:25:07;16.50;87.10
68235;DHT22;55052;52.056;5.296;2023-05-07T01:27:35;16.50;87.10
68235;DHT22;55052;52.056;5.296;2023-05-07T01:30:04;16.50;87.00
68235;DHT22;55052;52.056;5.296;2023-05-07T01:32:45;16.50;87.00
68235;DHT22;55052;52.056;5.296;2023-05-07T01:35:18;16.50;87.00
68235;DHT22;55052;52.056;5.296;2023-05-07T01:37:49;16.50;87.00
68235;DHT22;55052;52.056;5.296;2023-05-07T01:40:16;16.50;87.80
68235;DHT22;55052;52.056;5.296;2023-05-07T01:42:44;16.50;87.00
68235;DHT22;55052;52.056;5.296;2023-05-07T01:45:12;16.50;87.00
68235;DHT22;55052;52.056;5.296;2023-05-07T01:47:39;16.50;87.00
68235;DHT22;55052;52.056;5.296;2023-05-07T01:50:07;16.50;87.00
68235;DHT22;55052;52.056;5.296;2023-05-07T01:52:38;16.50;87.00
68235;DHT22;55052;52.056;5.296;2023-05-07T01:55:06;16.50;87.00
68235;DHT22;55052;52.056;5.296;2023-05-07T01:57:33;16.50;87.10
68235;DHT22;55052;52.056;5.296;2023-05-07T01:59:59;16.50;87.00
68235;DHT22;55052;52.056;5.296;2023-05-07T02:02:26;16.50;87.00
68235;DHT22;55052;52.056;5.296;2023-05-07T02:04:53;16.50;87.00
68235;DHT22;55052;52.056;5.296;2023-05-07T02:07:20;16.50;87.00
68235;DHT22;55052;52.056;5.296;2023-05-07T02:09:47;16.50;87.00
68235;DHT22;55052;52.056;5.296;2023-05-07T02:12:13;16.50;87.10
68235;DHT22;55052;52.056;5.296;2023-05-07T02:14:40;16.50;87.10
68235;DHT22;55052;52.056;5.296;2023-05-07T02:17:07;16.50;87.20
68235;DHT22;55052;52.056;5.296;2023-05-07T02:19:34;16.50;87.20
68235;DHT22;55052;52.056;5.296;2023-05-07T02:22:01;16.50;87.30
68235;DHT22;55052;52.056;5.296;2023-05-07T02:24:28;16.50;87.40
68235;DHT22;55052;52.056;5.296;2023-05-07T02:26:55;16.50;87.40
68235;DHT22;55052;52.056;5.296;2023-05-07T02:29:22;16.50;87.40
68235;DHT22;55052;52.056;5.296;2023-05-07T02:31:48;16.50;87.40
68235;DHT22;55052;52.056;5.296;2023-05-07T02:34:19;16.50;87.40
68235;DHT22;55052;52.056;5.296;2023-05-07T02:36:46;16.40;87.40
68235;DHT22;55052;52.056;5.296;2023-05-07T02:39:13;16.40;87.40
68235;DHT22;55052;52.056;5.296;2023-05-07T02:41:41;16.40;87.40
68235;DHT22;55052;52.056;5.296;2023-05-07T02:44:09;16.40;87.60
68235;DHT22;55052;52.056;5.296;2023-05-07T02:46:36;16.40;87.60
68235;DHT22;55052;52.056;5.296;2023-05-07T02:49:03;16.40;87.60
68235;DHT22;55052;52.056;5.296;2023-05-07T02:51:30;16.40;87.60
68235;DHT22;55052;52.056;5.296;2023-05-07T02:53:57;16.40;87.70
68235;DHT22;55052;52.056;5.296;2023-05-07T02:56:26;16.30;87.60
68235;DHT22;55052;52.056;5.296;2023-05-07T02:58:53;16.30;87.70
68235;DHT22;55052;52.056;5.296;2023-05-07T03:01:20;16.30;87.60
68235;DHT22;55052;52.056;5.296;2023-05-07T03:03:47;16.30;87.60
68235;DHT22;55052;52.056;5.296;2023-05-07T03:06:14;16.30;87.50
68235;DHT22;55052;52.056;5.296;2023-05-07T03:08:41;16.30;87.60
68235;DHT22;55052;52.056;5.296;2023-05-07T03:11:08;16.20;87.60
68235;DHT22;55052;52.056;5.296;2023-05-07T03:13:35;16.20;87.60
68235;DHT22;55052;52.056;5.296;2023-05-07T03:16:02;16.20;87.60
68235;DHT22;55052;52.056;5.296;2023-05-07T03:18:29;16.20;87.70
68235;DHT22;55052;52.056;5.296;2023-05-07T03:20:55;16.20;87.70
68235;DHT22;55052;52.056;5.296;2023-05-07T03:23:22;16.10;87.60
68235;DHT22;55052;52.056;5.296;2023-05-07T03:25:50;16.10;87.60
68235;DHT22;55052;52.056;5.296;2023-05-07T03:28:17;16.10;87.70
68235;DHT22;55052;52.056;5.296;2023-05-07T03:30:44;16.10;87.70
68235;DHT22;55052;52.056;5.296;2023-05-07T03:33:11;16.00;87.70
68235;DHT22;55052;52.056;5.296;2023-05-07T03:35:37;16.00;87.70
68235;DHT22;55052;52.056;5.296;2023-05-07T03:38:04;16.00;87.70
68235;DHT22;55052;52.056;5.296;2023-05-07T03:40:31;16.00;87.80
68235;DHT22;55052;52.056;5.296;2023-05-07T03:43:00;16.00;87.90
68235;DHT22;55052;52.056;5.296;2023-05-07T03:45:27;15.90;87.80
68235;DHT22;55052;52.056;5.296;2023-05-07T03:47:53;15.90;87.80
68235;DHT22;55052;52.056;5.296;2023-05-07T03:50:20;15.90;87.80
68235;DHT22;55052;52.056;5.296;2023-05-07T03:52:47;15.90;87.90
68235;DHT22;55052;52.056;5.296;2023-05-07T03:55:14;15.90;87.90
68235;DHT22;55052;52.056;5.296;2023-05-07T03:57:40;15.80;87.90
68235;DHT22;55052;52.056;5.296;2023-05-07T04:00:07;15.80;88.00
68235;DHT22;55052;52.056;5.296;2023-05-07T04:02:35;15.80;88.10
68235;DHT22;55052;52.056;5.296;2023-05-07T04:05:02;15.80;88.20
68235;DHT22;55052;52.056;5.296;2023-05-07T04:07:29;15.80;88.20
68235;DHT22;55052;52.056;5.296;2023-05-07T04:09:56;15.80;88.30
68235;DHT22;55052;52.056;5.296;2023-05-07T04:12:22;15.80;88.30
68235;DHT22;55052;52.056;5.296;2023-05-07T04:14:49;15.80;88.40
68235;DHT22;55052;52.056;5.296;2023-05-07T04:17:16;15.80;88.50
68235;DHT22;55052;52.056;5.296;2023-05-07T04:19:43;15.80;88.60
68235;DHT22;55052;52.056;5.296;2023-05-07T04:22:12;15.80;88.60
68235;DHT22;55052;52.056;5.296;2023-05-07T04:24:39;15.80;88.70
68235;DHT22;55052;52.056;5.296;2023-05-07T04:27:05;15.80;88.70
68235;DHT22;55052;52.056;5.296;2023-05-07T04:29:33;15.80;88.80
68235;DHT22;55052;52.056;5.296;2023-05-07T04:31:59;15.80;88.90
68235;DHT22;55052;52.056;5.296;2023-05-07T04:34:26;15.80;88.90
68235;DHT22;55052;52.056;5.296;2023-05-07T04:36:53;15.80;89.00
68235;DHT22;55052;52.056;5.296;2023-05-07T04:39:20;15.80;89.10
68235;DHT22;55052;52.056;5.296;2023-05-07T04:41:47;15.80;89.10
68235;DHT22;55052;52.056;5.296;2023-05-07T04:44:13;15.90;89.90
68235;DHT22;55052;52.056;5.296;2023-05-07T04:46:40;15.90;89.10
68235;DHT22;55052;52.056;5.296;2023-05-07T04:49:07;15.90;89.20
68235;DHT22;55052;52.056;5.296;2023-05-07T04:51:34;16.00;89.20
68235;DHT22;55052;52.056;5.296;2023-05-07T04:54:00;15.90;89.30
68235;DHT22;55052;52.056;5.296;2023-05-07T04:56:28;15.90;89.30
68235;DHT22;55052;52.056;5.296;2023-05-07T04:58:56;16.00;89.50
68235;DHT22;55052;52.056;5.296;2023-05-07T05:01:23;16.00;89.50
68235;DHT22;55052;52.056;5.296;2023-05-07T05:03:50;16.10;89.60
68235;DHT22;55052;52.056;5.296;2023-05-07T05:06:17;16.00;89.60
68235;DHT22;55052;52.056;5.296;2023-05-07T05:08:43;16.10;89.60
68235;DHT22;55052;52.056;5.296;2023-05-07T05:11:10;16.10;89.60
68235;DHT22;55052;52.056;5.296;2023-05-07T05:13:37;16.10;89.70
68235;DHT22;55052;52.056;5.296;2023-05-07T05:16:04;16.20;89.70
68235;DHT22;55052;52.056;5.296;2023-05-07T05:18:31;16.20;89.80
68235;DHT22;55052;52.056;5.296;2023-05-07T05:20:58;16.20;89.80
68235;DHT22;55052;52.056;5.296;2023-05-07T05:23:24;16.20;89.90
68235;DHT22;55052;52.056;5.296;2023-05-07T05:25:56;16.20;89.80
68235;DHT22;55052;52.056;5.296;2023-05-07T05:28:24;16.30;89.90
68235;DHT22;55052;52.056;5.296;2023-05-07T05:30:51;16.30;89.90
68235;DHT22;55052;52.056;5.296;2023-05-07T05:33:17;16.30;89.90
68235;DHT22;55052;52.056;5.296;2023-05-07T05:35:44;16.30;89.90
68235;DHT22;55052;52.056;5.296;2023-05-07T05:38:11;16.30;89.90
68235;DHT22;55052;52.056;5.296;2023-05-07T05:40:38;16.30;90.00
68235;DHT22;55052;52.056;5.296;2023-05-07T05:43:05;16.30;89.90
68235;DHT22;55052;52.056;5.296;2023-05-07T05:45:32;16.30;89.90
68235;DHT22;55052;52.056;5.296;2023-05-07T05:47:59;16.30;89.90
68235;DHT22;55052;52.056;5.296;2023-05-07T05:50:26;16.30;89.90
68235;DHT22;55052;52.056;5.296;2023-05-07T05:52:53;16.30;89.90
68235;DHT22;55052;52.056;5.296;2023-05-07T05:55:20;16.30;89.90
68235;DHT22;55052;52.056;5.296;2023-05-07T05:57:47;16.40;90.00
68235;DHT22;55052;52.056;5.296;2023-05-07T06:00:14;16.30;89.90
68235;DHT22;55052;52.056;5.296;2023-05-07T06:02:42;16.30;90.00
68235;DHT22;55052;52.056;5.296;2023-05-07T06:05:09;16.40;90.00
68235;DHT22;55052;52.056;5.296;2023-05-07T06:07:36;16.40;90.10
68235;DHT22;55052;52.056;5.296;2023-05-07T06:10:03;16.40;90.10
68235;DHT22;55052;52.056;5.296;2023-05-07T06:12:30;16.40;90.20
68235;DHT22;55052;52.056;5.296;2023-05-07T06:14:57;16.40;90.20
68235;DHT22;55052;52.056;5.296;2023-05-07T06:17:23;16.40;90.30
68235;DHT22;55052;52.056;5.296;2023-05-07T06:19:51;16.40;90.30
68235;DHT22;55052;52.056;5.296;2023-05-07T06:22:18;16.40;90.30
68235;DHT22;55052;52.056;5.296;2023-05-07T06:24:45;16.40;90.40
68235;DHT22;55052;52.056;5.296;2023-05-07T06:27:12;16.40;90.80
68235;DHT22;55052;52.056;5.296;2023-05-07T06:29:39;16.50;90.50
68235;DHT22;55052;52.056;5.296;2023-05-07T06:32:07;16.50;90.60
68235;DHT22;55052;52.056;5.296;2023-05-07T06:34:34;16.50;90.60
68235;DHT22;55052;52.056;5.296;2023-05-07T06:37:01;16.50;90.70
68235;DHT22;55052;52.056;5.296;2023-05-07T06:39:28;16.50;90.70
68235;DHT22;55052;52.056;5.296;2023-05-07T06:41:55;16.60;90.80
68235;DHT22;55052;52.056;5.296;2023-05-07T06:44:22;16.60;90.80
68235;DHT22;55052;52.056;5.296;2023-05-07T06:46:49;16.60;90.80
68235;DHT22;55052;52.056;5.296;2023-05-07T06:49:16;16.60;90.90
68235;DHT22;55052;52.056;5.296;2023-05-07T06:51:42;16.60;90.90
68235;DHT22;55052;52.056;5.296;2023-05-07T06:54:09;16.70;90.90
68235;DHT22;55052;52.056;5.296;2023-05-07T06:56:36;16.70;90.90
68235;DHT22;55052;52.056;5.296;2023-05-07T06:59:03;16.70;90.90
68235;DHT22;55052;52.056;5.296;2023-05-07T07:01:30;16.80;90.90
68235;DHT22;55052;52.056;5.296;2023-05-07T07:03:57;16.80;90.90
68235;DHT22;55052;52.056;5.296;2023-05-07T07:06:24;16.80;91.00
68235;DHT22;55052;52.056;5.296;2023-05-07T07:08:50;16.90;91.00
68235;DHT22;55052;52.056;5.296;2023-05-07T07:11:17;16.90;91.00
68235;DHT22;55052;52.056;5.296;2023-05-07T07:13:44;16.90;91.10
68235;DHT22;55052;52.056;5.296;2023-05-07T07:16:11;17.00;91.10
68235;DHT22;55052;52.056;5.296;2023-05-07T07:18:38;17.00;91.10
68235;DHT22;55052;52.056;5.296;2023-05-07T07:21:05;17.10;91.20
68235;DHT22;55052;52.056;5.296;2023-05-07T07:23:32;17.10;91.30
68235;DHT22;55052;52.056;5.296;2023-05-07T07:25:59;17.20;91.30
68235;DHT22;55052;52.056;5.296;2023-05-07T07:28:26;17.30;91.30
68235;DHT22;55052;52.056;5.296;2023-05-07T07:30:53;17.30;91.30
68235;DHT22;55052;52.056;5.296;2023-05-07T07:33:19;17.40;91.30
68235;DHT22;55052;52.056;5.296;2023-05-07T07:35:46;17.40;91.60
68235;DHT22;55052;52.056;5.296;2023-05-07T07:38:13;17.50;91.20
68235;DHT22;55052;52.056;5.296;2023-05-07T07:40:40;17.60;91.20
68235;DHT22;55052;52.056;5.296;2023-05-07T07:43:07;17.60;91.10
68235;DHT22;55052;52.056;5.296;2023-05-07T07:45:34;17.60;91.00
68235;DHT22;55052;52.056;5.296;2023-05-07T07:48:01;17.70;91.00
68235;DHT22;55052;52.056;5.296;2023-05-07T07:50:28;17.70;90.90
68235;DHT22;55052;52.056;5.296;2023-05-07T07:53:10;17.70;90.90
68235;DHT22;55052;52.056;5.296;2023-05-07T07:55:39;17.70;90.90
68235;DHT22;55052;52.056;5.296;2023-05-07T07:58:07;17.80;90.90
68235;DHT22;55052;52.056;5.296;2023-05-07T08:00:33;17.80;90.80
68235;DHT22;55052;52.056;5.296;2023-05-07T08:03:00;17.80;90.90
68235;DHT22;55052;52.056;5.296;2023-05-07T08:05:27;17.90;90.90
68235;DHT22;55052;52.056;5.296;2023-05-07T08:07:54;17.90;90.90
68235;DHT22;55052;52.056;5.296;2023-05-07T08:10:21;17.90;90.90
68235;DHT22;55052;52.056;5.296;2023-05-07T08:12:49;17.90;90.90
68235;DHT22;55052;52.056;5.296;2023-05-07T08:15:16;18.00;90.90
68235;DHT22;55052;52.056;5.296;2023-05-07T08:17:43;18.00;90.90
68235;DHT22;55052;52.056;5.296;2023-05-07T08:20:10;18.10;90.90
68235;DHT22;55052;52.056;5.296;2023-05-07T08:22:37;18.10;91.30
68235;DHT22;55052;52.056;5.296;2023-05-07T08:25:04;18.10;90.90
68235;DHT22;55052;52.056;5.296;2023-05-07T08:27:31;18.10;91.00
68235;DHT22;55052;52.056;5.296;2023-05-07T08:29:58;18.10;91.00
68235;DHT22;55052;52.056;5.296;2023-05-07T08:32:25;18.20;91.10
68235;DHT22;55052;52.056;5.296;2023-05-07T08:34:52;18.20;91.10
68235;DHT22;55052;52.056;5.296;2023-05-07T08:37:19;18.20;91.10
68235;DHT22;55052;52.056;5.296;2023-05-07T08:39:45;18.30;91.20
68235;DHT22;55052;52.056;5.296;2023-05-07T08:42:13;18.30;91.20
68235;DHT22;55052;52.056;5.296;2023-05-07T08:44:45;18.30;91.10
68235;DHT22;55052;52.056;5.296;2023-05-07T08:47:13;18.30;91.20
68235;DHT22;55052;52.056;5.296;2023-05-07T08:49:40;18.30;91.20
68235;DHT22;55052;52.056;5.296;2023-05-07T08:52:07;18.30;91.30
68235;DHT22;55052;52.056;5.296;2023-05-07T08:54:37;18.30;91.30
68235;DHT22;55052;52.056;5.296;2023-05-07T08:57:04;18.40;91.30
68235;DHT22;55052;52.056;5.296;2023-05-07T08:59:31;18.40;91.40
68235;DHT22;55052;52.056;5.296;2023-05-07T09:01:58;18.40;91.40
68235;DHT22;55052;52.056;5.296;2023-05-07T09:04:24;18.50;91.50
68235;DHT22;55052;52.056;5.296;2023-05-07T09:06:51;18.50;91.50
68235;DHT22;55052;52.056;5.296;2023-05-07T09:09:18;18.60;91.60
68235;DHT22;55052;52.056;5.296;2023-05-07T09:11:45;18.60;91.60
68235;DHT22;55052;52.056;5.296;2023-05-07T09:14:12;18.70;91.50
68235;DHT22;55052;52.056;5.296;2023-05-07T09:16:39;18.70;91.60
68235;DHT22;55052;52.056;5.296;2023-05-07T09:19:06;18.70;91.60
68235;DHT22;55052;52.056;5.296;2023-05-07T09:21:33;18.80;91.50
68235;DHT22;55052;52.056;5.296;2023-05-07T09:23:59;18.80;91.40
68235;DHT22;55052;52.056;5.296;2023-05-07T09:26:26;18.90;91.30
68235;DHT22;55052;52.056;5.296;2023-05-07T09:28:54;18.90;91.20
68235;DHT22;55052;52.056;5.296;2023-05-07T09:31:21;18.90;91.10
68235;DHT22;55052;52.056;5.296;2023-05-07T09:33:50;19.00;91.10
68235;DHT22;55052;52.056;5.296;2023-05-07T09:36:18;19.00;91.40
68235;DHT22;55052;52.056;5.296;2023-05-07T09:38:45;19.00;90.90
68235;DHT22;55052;52.056;5.296;2023-05-07T09:41:12;19.10;90.90
68235;DHT22;55052;52.056;5.296;2023-05-07T09:43:40;19.20;91.00
68235;DHT22;55052;52.056;5.296;2023-05-07T09:46:11;19.20;91.10
68235;DHT22;55052;52.056;5.296;2023-05-07T09:48:40;19.30;91.10
68235;DHT22;55052;52.056;5.296;2023-05-07T09:51:24;19.30;90.80
68235;DHT22;55052;52.056;5.296;2023-05-07T09:53:53;19.40;90.80
68235;DHT22;55052;52.056;5.296;2023-05-07T09:56:21;19.40;90.70
68235;DHT22;55052;52.056;5.296;2023-05-07T09:58:48;19.40;90.60
68235;DHT22;55052;52.056;5.296;2023-05-07T10:01:17;19.50;90.60
68235;DHT22;55052;52.056;5.296;2023-05-07T10:03:44;19.50;90.60
68235;DHT22;55052;52.056;5.296;2023-05-07T10:06:13;19.60;90.50
68235;DHT22;55052;52.056;5.296;2023-05-07T10:08:41;19.60;90.50
68235;DHT22;55052;52.056;5.296;2023-05-07T10:11:09;19.70;90.50
68235;DHT22;55052;52.056;5.296;2023-05-07T10:13:36;19.70;90.40
68235;DHT22;55052;52.056;5.296;2023-05-07T10:16:05;19.80;90.30
68235;DHT22;55052;52.056;5.296;2023-05-07T10:18:32;19.80;90.20
68235;DHT22;55052;52.056;5.296;2023-05-07T10:21:20;19.80;90.20
68235;DHT22;55052;52.056;5.296;2023-05-07T10:23:53;19.90;90.20
68235;DHT22;55052;52.056;5.296;2023-05-07T10:26:24;19.90;90.00
68235;DHT22;55052;52.056;5.296;2023-05-07T10:28:56;19.90;89.90
68235;DHT22;55052;52.056;5.296;2023-05-07T10:34:36;20.10;89.40
68235;DHT22;55052;52.056;5.296;2023-05-07T10:37:04;20.10;89.30
68235;DHT22;55052;52.056;5.296;2023-05-07T10:39:31;20.10;89.20
68235;DHT22;55052;52.056;5.296;2023-05-07T10:42:10;20.20;89.10
68235;DHT22;55052;52.056;5.296;2023-05-07T10:44:38;20.20;89.20
68235;DHT22;55052;52.056;5.296;2023-05-07T10:47:13;20.30;89.30
68235;DHT22;55052;52.056;5.296;2023-05-07T10:52:18;20.40;89.60
68235;DHT22;55052;52.056;5.296;2023-05-07T10:54:46;20.50;88.80
68235;DHT22;55052;52.056;5.296;2023-05-07T10:59:58;20.60;88.10
68235;DHT22;55052;52.056;5.296;2023-05-07T11:05:43;20.70;87.80
68235;DHT22;55052;52.056;5.296;2023-05-07T11:08:10;20.80;87.70
68235;DHT22;55052;52.056;5.296;2023-05-07T11:10:56;20.90;87.40
68235;DHT22;55052;52.056;5.296;2023-05-07T11:13:44;20.90;87.00
68235;DHT22;55052;52.056;5.296;2023-05-07T11:16:24;21.00;86.80
68235;DHT22;55052;52.056;5.296;2023-05-07T11:18:55;21.10;86.60
68235;DHT22;55052;52.056;5.296;2023-05-07T11:21:39;21.10;85.90
68235;DHT22;55052;52.056;5.296;2023-05-07T11:24:10;21.20;85.20
68235;DHT22;55052;52.056;5.296;2023-05-07T11:26:50;21.20;85.20
68235;DHT22;55052;52.056;5.296;2023-05-07T11:29:18;21.30;84.80
68235;DHT22;55052;52.056;5.296;2023-05-07T11:31:49;21.40;84.30
68235;DHT22;55052;52.056;5.296;2023-05-07T11:34:25;21.40;84.50
68235;DHT22;55052;52.056;5.296;2023-05-07T11:36:52;21.50;83.50
68235;DHT22;55052;52.056;5.296;2023-05-07T11:39:32;21.60;83.50
68235;DHT22;55052;52.056;5.296;2023-05-07T11:42:00;21.60;82.90
68235;DHT22;55052;52.056;5.296;2023-05-07T11:44:44;21.70;82.90
68235;DHT22;55052;52.056;5.296;2023-05-07T11:47:17;21.80;82.30
68235;DHT22;55052;52.056;5.296;2023-05-07T11:49:48;21.80;82.00
68235;DHT22;55052;52.056;5.296;2023-05-07T11:52:17;21.90;81.80
68235;DHT22;55052;52.056;5.296;2023-05-07T11:54:54;21.90;82.00
68235;DHT22;55052;52.056;5.296;2023-05-07T11:57:25;22.00;81.50
68235;DHT22;55052;52.056;5.296;2023-05-07T11:59:58;22.00;81.20
68235;DHT22;55052;52.056;5.296;2023-05-07T12:02:26;22.10;81.20
68235;DHT22;55052;52.056;5.296;2023-05-07T12:04:53;22.10;80.80
68235;DHT22;55052;52.056;5.296;2023-05-07T12:07:20;22.20;80.40
68235;DHT22;55052;52.056;5.296;2023-05-07T12:09:48;22.20;79.90
68235;DHT22;55052;52.056;5.296;2023-05-07T12:12:14;22.30;79.70
68235;DHT22;55052;52.056;5.296;2023-05-07T12:14:45;22.40;79.60
68235;DHT22;55052;52.056;5.296;2023-05-07T12:17:13;22.40;79.50
68235;DHT22;55052;52.056;5.296;2023-05-07T12:19:43;22.50;79.50
68235;DHT22;55052;52.056;5.296;2023-05-07T12:22:11;22.70;79.20
68235;DHT22;55052;52.056;5.296;2023-05-07T12:24:57;22.80;78.80
68235;DHT22;55052;52.056;5.296;2023-05-07T12:27:25;22.90;77.90
68235;DHT22;55052;52.056;5.296;2023-05-07T12:29:52;22.90;78.00
68235;DHT22;55052;52.056;5.296;2023-05-07T12:32:20;23.00;77.00
68235;DHT22;55052;52.056;5.296;2023-05-07T12:34:51;23.10;76.40
68235;DHT22;55052;52.056;5.296;2023-05-07T12:37:23;23.20;75.50
68235;DHT22;55052;52.056;5.296;2023-05-07T12:40:08;23.30;76.40
68235;DHT22;55052;52.056;5.296;2023-05-07T12:42:36;23.30;73.60
68235;DHT22;55052;52.056;5.296;2023-05-07T12:45:10;23.40;74.20
68235;DHT22;55052;52.056;5.296;2023-05-07T12:47:38;23.50;73.50
68235;DHT22;55052;52.056;5.296;2023-05-07T12:50:06;23.60;73.80
68235;DHT22;55052;52.056;5.296;2023-05-07T12:52:33;23.60;73.30
68235;DHT22;55052;52.056;5.296;2023-05-07T12:55:08;23.60;73.10
68235;DHT22;55052;52.056;5.296;2023-05-07T12:57:39;23.70;71.80
68235;DHT22;55052;52.056;5.296;2023-05-07T13:00:07;23.70;71.80
68235;DHT22;55052;52.056;5.296;2023-05-07T13:02:39;23.70;70.90
68235;DHT22;55052;52.056;5.296;2023-05-07T13:05:07;23.70;70.30
68235;DHT22;55052;52.056;5.296;2023-05-07T13:07:35;23.60;70.40
68235;DHT22;55052;52.056;5.296;2023-05-07T13:10:04;23.60;70.30
68235;DHT22;55052;52.056;5.296;2023-05-07T13:12:31;23.60;69.70
68235;DHT22;55052;52.056;5.296;2023-05-07T13:14:57;23.70;69.40
68235;DHT22;55052;52.056;5.296;2023-05-07T13:17:25;23.70;69.30
68235;DHT22;55052;52.056;5.296;2023-05-07T13:19:52;23.70;69.10
68235;DHT22;55052;52.056;5.296;2023-05-07T13:22:19;23.70;69.20
68235;DHT22;55052;52.056;5.296;2023-05-07T13:24:46;23.80;69.30
68235;DHT22;55052;52.056;5.296;2023-05-07T13:27:13;23.80;69.40
68235;DHT22;55052;52.056;5.296;2023-05-07T13:29:39;23.80;69.20
68235;DHT22;55052;52.056;5.296;2023-05-07T13:32:06;23.80;69.40
68235;DHT22;55052;52.056;5.296;2023-05-07T13:34:33;23.70;69.10
68235;DHT22;55052;52.056;5.296;2023-05-07T13:37:00;23.70;69.10
68235;DHT22;55052;52.056;5.296;2023-05-07T13:39:27;23.70;68.60
68235;DHT22;55052;52.056;5.296;2023-05-07T13:41:54;23.70;68.10
68235;DHT22;55052;52.056;5.296;2023-05-07T13:44:21;23.70;68.30
68235;DHT22;55052;52.056;5.296;2023-05-07T13:46:47;23.60;68.60
68235;DHT22;55052;52.056;5.296;2023-05-07T13:49:14;23.60;68.40
68235;DHT22;55052;52.056;5.296;2023-05-07T13:51:41;23.60;68.10
68235;DHT22;55052;52.056;5.296;2023-05-07T13:54:08;23.60;68.40
68235;DHT22;55052;52.056;5.296;2023-05-07T13:56:35;23.60;68.40
68235;DHT22;55052;52.056;5.296;2023-05-07T13:59:02;23.60;68.40
68235;DHT22;55052;52.056;5.296;2023-05-07T14:01:28;23.60;68.60
68235;DHT22;55052;52.056;5.296;2023-05-07T14:03:56;23.60;68.20
68235;DHT22;55052;52.056;5.296;2023-05-07T14:06:24;23.60;68.40
68235;DHT22;55052;52.056;5.296;2023-05-07T14:08:51;23.60;67.70
68235;DHT22;55052;52.056;5.296;2023-05-07T14:11:18;23.60;67.20
68235;DHT22;55052;52.056;5.296;2023-05-07T14:13:45;23.60;67.30
68235;DHT22;55052;52.056;5.296;2023-05-07T14:16:12;23.60;67.20
68235;DHT22;55052;52.056;5.296;2023-05-07T14:18:38;23.60;66.90
68235;DHT22;55052;52.056;5.296;2023-05-07T14:21:05;23.60;65.80
68235;DHT22;55052;52.056;5.296;2023-05-07T14:23:36;23.60;65.80
68235;DHT22;55052;52.056;5.296;2023-05-07T14:26:03;23.50;66.00
68235;DHT22;55052;52.056;5.296;2023-05-07T14:28:30;23.50;65.70
68235;DHT22;55052;52.056;5.296;2023-05-07T14:30:56;23.50;65.70
68235;DHT22;55052;52.056;5.296;2023-05-07T14:33:23;23.50;65.70
68235;DHT22;55052;52.056;5.296;2023-05-07T14:35:50;23.50;66.40
68235;DHT22;55052;52.056;5.296;2023-05-07T14:38:17;23.50;66.20
68235;DHT22;55052;52.056;5.296;2023-05-07T14:40:44;23.40;65.70
68235;DHT22;55052;52.056;5.296;2023-05-07T14:43:11;23.40;64.60
68235;DHT22;55052;52.056;5.296;2023-05-07T14:45:38;23.40;64.70
68235;DHT22;55052;52.056;5.296;2023-05-07T14:48:05;23.30;64.50
68235;DHT22;55052;52.056;5.296;2023-05-07T14:50:32;23.20;64.40
68235;DHT22;55052;52.056;5.296;2023-05-07T14:52:58;23.20;64.40
68235;DHT22;55052;52.056;5.296;2023-05-07T14:55:25;23.10;64.40
68235;DHT22;55052;52.056;5.296;2023-05-07T14:57:52;23.10;65.10
68235;DHT22;55052;52.056;5.296;2023-05-07T15:00:19;23.00;65.40
68235;DHT22;55052;52.056;5.296;2023-05-07T15:02:46;23.00;65.80
68235;DHT22;55052;52.056;5.296;2023-05-07T15:05:13;22.90;65.80
68235;DHT22;55052;52.056;5.296;2023-05-07T15:07:41;22.80;65.70
68235;DHT22;55052;52.056;5.296;2023-05-07T15:10:08;22.80;65.70
68235;DHT22;55052;52.056;5.296;2023-05-07T15:12:35;22.70;66.00
68235;DHT22;55052;52.056;5.296;2023-05-07T15:15:02;22.60;65.90
68235;DHT22;55052;52.056;5.296;2023-05-07T15:17:29;22.40;66.30
68235;DHT22;55052;52.056;5.296;2023-05-07T15:19:55;22.20;66.90
68235;DHT22;55052;52.056;5.296;2023-05-07T15:22:22;22.00;67.20
68235;DHT22;55052;52.056;5.296;2023-05-07T15:24:49;21.80;67.50
68235;DHT22;55052;52.056;5.296;2023-05-07T15:27:17;21.50;68.10
68235;DHT22;55052;52.056;5.296;2023-05-07T15:29:43;21.30;69.00
68235;DHT22;55052;52.056;5.296;2023-05-07T15:32:11;21.10;69.70
68235;DHT22;55052;52.056;5.296;2023-05-07T15:34:38;20.90;71.40
68235;DHT22;55052;52.056;5.296;2023-05-07T15:37:05;20.60;71.50
68235;DHT22;55052;52.056;5.296;2023-05-07T15:39:31;20.50;72.60
68235;DHT22;55052;52.056;5.296;2023-05-07T15:41:58;20.40;73.60
68235;DHT22;55052;52.056;5.296;2023-05-07T15:44:25;20.20;74.50
68235;DHT22;55052;52.056;5.296;2023-05-07T15:46:55;20.10;75.40